TimePDT,TemperatureF,Dew PointF,Humidity,Sea Level PressureIn,VisibilityMPH,Wind Direction,Wind SpeedMPH,Gust SpeedMPH,PrecipitationIn,Events,Conditions,WindDirDegrees,DateUTC
12:53 AM,66.9,37.0,33,29.94,10.0,NNE,9.2,-,N/A,,Clear,20,2013-04-01 07:53:00
1:53 AM,64.9,37.0,36,29.95,10.0,NE,3.5,-,N/A,,Clear,40,2013-04-01 08:53:00
2:53 AM,62.1,39.0,43,29.95,10.0,Variable,3.5,-,N/A,,Clear,0,2013-04-01 09:53:00
3:53 AM,64.9,37.0,36,29.95,10.0,WNW,6.9,-,N/A,,Clear,300,2013-04-01 10:53:00
4:53 AM,62.1,39.9,44,29.95,10.0,West,5.8,16.1,N/A,,Clear,260,2013-04-01 11:53:00
5:53 AM,59.0,37.9,46,29.95,10.0,SE,5.8,-,N/A,,Clear,140,2013-04-01 12:53:00
6:53 AM,59.0,41.0,51,29.96,10.0,SE,4.6,-,N/A,,Scattered Clouds,130,2013-04-01 13:53:00
7:53 AM,61.0,42.1,50,29.99,10.0,Calm,Calm,-,N/A,,Clear,0,2013-04-01 14:53:00
9:53 AM,68.0,37.0,32,30.00,10.0,SE,6.9,-,N/A,,Scattered Clouds,140,2013-04-01 16:53:00
10:53 AM,72.0,34.0,25,30.00,10.0,South,6.9,-,N/A,,Scattered Clouds,170,2013-04-01 17:53:00
11:53 AM,75.0,37.9,26,29.99,10.0,NW,16.1,23.0,N/A,,Scattered Clouds,320,2013-04-01 18:53:00
12:53 PM,75.9,37.0,24,29.97,10.0,NNW,19.6,25.3,N/A,,Mostly Cloudy,330,2013-04-01 19:53:00
1:53 PM,78.1,36.0,22,29.95,10.0,NNW,13.8,23.0,N/A,,Mostly Cloudy,340,2013-04-01 20:53:00
2:53 PM,78.1,37.0,23,29.92,10.0,NW,18.4,26.5,N/A,,Mostly Cloudy,320,2013-04-01 21:53:00
3:53 PM,79.0,37.9,23,29.90,10.0,NW,20.7,25.3,N/A,,Mostly Cloudy,320,2013-04-01 22:53:00
4:53 PM,78.1,37.9,24,29.89,10.0,NNW,17.3,25.3,N/A,,Scattered Clouds,330,2013-04-01 23:53:00
5:53 PM,75.0,41.0,29,29.89,10.0,NW,19.6,28.8,N/A,,Scattered Clouds,310,2013-04-02 00:53:00
6:53 PM,70.0,42.1,36,29.89,10.0,NW,24.2,34.5,N/A,,Clear,320,2013-04-02 01:53:00
7:53 PM,69.1,43.0,39,29.91,10.0,NW,24.2,31.1,N/A,,Clear,320,2013-04-02 02:53:00
8:53 PM,68.0,42.1,39,29.91,10.0,NW,21.9,26.5,N/A,,Clear,310,2013-04-02 03:53:00
9:53 PM,68.0,39.9,36,29.91,10.0,NW,15.0,25.3,N/A,,Clear,310,2013-04-02 04:53:00
10:53 PM,68.0,39.9,36,29.92,10.0,NW,12.7,24.2,N/A,,Clear,310,2013-04-02 05:53:00
11:53 PM,66.9,41.0,39,29.92,10.0,NW,12.7,-,N/A,,Clear,320,2013-04-02 06:53:00